createdAt,value
2017-10-25T00:01:09.508Z,101358.52
2017-10-25T00:03:40.866Z,101365.89
2017-10-25T00:06:12.264Z,101368.02
2017-10-25T00:08:43.916Z,101366.02
2017-10-25T00:11:15.460Z,101359.99
2017-10-25T00:13:47.057Z,101363.97
2017-10-25T00:19:20.281Z,101360.76
2017-10-25T00:21:51.761Z,101361.66
2017-10-25T00:24:23.490Z,101362.05
2017-10-25T00:26:55.121Z,101358.02
2017-10-25T00:29:27.332Z,101358.87
2017-10-25T00:31:59.058Z,101356.66
2017-10-25T00:34:32.952Z,101355.47
2017-10-25T00:37:04.684Z,101352.36
2017-10-25T00:39:38.650Z,101356.78
2017-10-25T00:42:11.115Z,101359.00
2017-10-25T00:44:43.461Z,101355.59
2017-10-25T00:47:15.386Z,101366.27
2017-10-25T00:49:46.855Z,101355.13
2017-10-25T00:52:18.211Z,101362.98
2017-10-25T00:54:49.538Z,101355.86
2017-10-25T00:57:21.292Z,101355.47
2017-10-25T00:59:52.678Z,101361.22
2017-10-25T01:02:24.237Z,101360.09
2017-10-25T01:04:55.978Z,101356.58
2017-10-25T01:07:27.709Z,101354.39
2017-10-25T01:09:59.104Z,101353.50
2017-10-25T01:15:03.597Z,101346.55
2017-10-25T01:17:34.899Z,101350.19
2017-10-25T01:20:07.392Z,101350.62
2017-10-25T01:22:38.711Z,101356.41
2017-10-25T01:25:10.767Z,101353.06
2017-10-25T01:27:42.586Z,101359.14
2017-10-25T01:30:14.019Z,101354.25
2017-10-25T01:32:45.651Z,101356.50
2017-10-25T01:35:17.050Z,101348.59
2017-10-25T01:37:48.427Z,101351.64
2017-10-25T01:40:20.412Z,101352.09
2017-10-25T01:42:51.758Z,101353.83
2017-10-25T01:45:25.178Z,101348.23
2017-10-25T01:47:56.977Z,101344.69
2017-10-25T01:50:28.415Z,101349.89
2017-10-25T01:52:59.875Z,101346.88
2017-10-25T01:55:31.586Z,101344.69
2017-10-25T01:58:03.886Z,101341.05
2017-10-25T02:00:35.535Z,101343.61
2017-10-25T02:03:07.357Z,101344.09
2017-10-25T02:05:38.756Z,101350.62
2017-10-25T02:08:10.423Z,101349.73
2017-10-25T02:10:41.800Z,101350.06
2017-10-25T02:13:13.129Z,101340.34
2017-10-25T02:15:45.599Z,101346.45
2017-10-25T02:18:17.117Z,101345.47
2017-10-25T02:20:48.597Z,101340.48
2017-10-25T02:23:20.245Z,101336.51
2017-10-25T02:25:52.016Z,101332.08
2017-10-25T02:28:24.527Z,101330.38
2017-10-25T02:30:55.939Z,101336.61
2017-10-25T02:33:28.372Z,101327.44
2017-10-25T02:36:00.476Z,101329.66
2017-10-25T02:38:31.837Z,101325.72
2017-10-25T02:41:03.873Z,101328.76
2017-10-25T02:43:35.812Z,101330.08
2017-10-25T02:46:07.113Z,101318.54
2017-10-25T02:48:38.908Z,101313.94
2017-10-25T02:51:10.355Z,101317.91
2017-10-25T02:53:41.857Z,101317.77
2017-10-25T02:56:13.220Z,101313.30
2017-10-25T02:58:44.829Z,101305.55
2017-10-25T03:01:16.182Z,101305.13
2017-10-25T03:03:47.755Z,101299.83
2017-10-25T03:06:19.501Z,101306.02
2017-10-25T03:08:50.920Z,101304.27
2017-10-25T03:11:22.324Z,101309.09
2017-10-25T03:13:53.647Z,101313.73
2017-10-25T03:16:25.021Z,101304.23
2017-10-25T03:18:56.710Z,101310.58
2017-10-25T03:21:28.238Z,101309.75
2017-10-25T03:23:59.610Z,101315.53
2017-10-25T03:26:33.799Z,101315.66
2017-10-25T03:29:05.203Z,101318.83
2017-10-25T03:31:36.990Z,101316.61
2017-10-25T03:34:08.272Z,101313.23
2017-10-25T03:36:39.904Z,101315.42
2017-10-25T03:39:11.785Z,101322.13
2017-10-25T03:41:43.128Z,101312.59
2017-10-25T03:44:14.481Z,101311.70
2017-10-25T03:46:47.235Z,101305.09
2017-10-25T03:49:18.583Z,101301.13
2017-10-25T03:51:50.178Z,101292.72
2017-10-25T03:54:22.061Z,101293.28
2017-10-25T03:56:53.456Z,101293.34
2017-10-25T03:59:27.993Z,101295.53
2017-10-25T04:01:59.295Z,101297.74
2017-10-25T04:04:32.602Z,101291.50
2017-10-25T04:07:05.307Z,101283.12
2017-10-25T04:09:36.794Z,101280.52
2017-10-25T04:12:09.594Z,101282.70
2017-10-25T04:14:41.778Z,101289.77
2017-10-25T04:17:13.759Z,101283.16
2017-10-25T04:19:45.900Z,101287.16
2017-10-25T04:22:17.441Z,101289.05
2017-10-25T04:24:49.203Z,101282.06
2017-10-25T04:27:22.982Z,101290.98
2017-10-25T04:29:54.615Z,101292.34
2017-10-25T04:32:28.704Z,101293.78
2017-10-25T04:35:00.051Z,101288.53
2017-10-25T04:37:31.851Z,101291.27
2017-10-25T04:40:08.162Z,101294.87
2017-10-25T04:42:40.141Z,101287.39
2017-10-25T04:45:12.451Z,101282.56
2017-10-25T04:47:44.658Z,101284.78
2017-10-25T04:50:16.085Z,101279.46
2017-10-25T04:52:47.379Z,101282.08
2017-10-25T04:55:19.703Z,101286.53
2017-10-25T04:57:51.287Z,101286.87
2017-10-25T05:00:27.474Z,101286.08
2017-10-25T05:02:59.026Z,101288.69
2017-10-25T05:05:31.863Z,101289.39
2017-10-25T05:11:14.691Z,101290.28
2017-10-25T05:13:46.040Z,101290.28
2017-10-25T05:16:17.763Z,101286.81
2017-10-25T05:18:49.076Z,101288.47
2017-10-25T05:21:20.562Z,101291.88
2017-10-25T05:23:52.261Z,101272.53
2017-10-25T05:26:25.240Z,101277.05
2017-10-25T05:28:56.592Z,101274.91
2017-10-25T05:31:29.637Z,101281.02
2017-10-25T05:34:03.149Z,101281.42
2017-10-25T05:36:45.677Z,101278.02
2017-10-25T05:39:17.086Z,101277.16
2017-10-25T05:41:48.831Z,101268.33
2017-10-25T05:44:20.478Z,101281.98
2017-10-25T05:46:52.018Z,101276.16
2017-10-25T05:49:25.543Z,101275.37
2017-10-25T05:51:56.952Z,101271.83
2017-10-25T05:54:29.438Z,101265.68
2017-10-25T05:57:00.879Z,101273.19
2017-10-25T05:59:32.251Z,101279.43
2017-10-25T06:02:05.050Z,101285.52
2017-10-25T06:04:36.722Z,101283.67
2017-10-25T06:07:08.372Z,101289.39
2017-10-25T06:09:39.793Z,101289.17
2017-10-25T06:12:11.330Z,101292.67
2017-10-25T06:14:43.062Z,101296.21
2017-10-25T06:17:14.640Z,101298.06
2017-10-25T06:19:46.129Z,101297.59
2017-10-25T06:22:18.592Z,101289.82
2017-10-25T06:24:49.951Z,101299.81
2017-10-25T06:27:23.640Z,101307.28
2017-10-25T06:29:54.967Z,101310.73
2017-10-25T06:32:28.003Z,101307.63
2017-10-25T06:34:59.681Z,101304.78
2017-10-25T06:40:04.451Z,101307.91
2017-10-25T06:42:36.106Z,101301.50
2017-10-25T06:45:08.365Z,101311.47
2017-10-25T06:47:40.015Z,101304.79
2017-10-25T06:50:11.439Z,101310.65
2017-10-25T06:52:43.295Z,101319.19
2017-10-25T06:55:14.736Z,101316.85
2017-10-25T06:57:47.497Z,101321.95
2017-10-25T07:00:19.752Z,101325.53
2017-10-25T07:02:51.251Z,101321.77
2017-10-25T07:05:24.885Z,101322.09
2017-10-25T07:07:56.615Z,101328.03
2017-10-25T07:10:28.076Z,101325.15
2017-10-25T07:13:00.275Z,101323.00
2017-10-25T07:15:32.327Z,101323.27
2017-10-25T07:18:05.082Z,101325.28
2017-10-25T07:20:37.704Z,101329.83
2017-10-25T07:23:09.270Z,101332.34
2017-10-25T07:25:40.944Z,101335.78
2017-10-25T07:28:13.285Z,101339.36
2017-10-25T07:30:44.909Z,101345.05
2017-10-25T07:33:16.685Z,101341.22
2017-10-25T07:35:48.501Z,101339.26
2017-10-25T07:38:20.335Z,101345.84
2017-10-25T07:40:51.845Z,101346.44
2017-10-25T07:43:25.504Z,101337.80
2017-10-25T07:45:57.184Z,101340.31
2017-10-25T07:48:29.070Z,101334.19
2017-10-25T07:51:00.834Z,101331.70
2017-10-25T07:53:32.545Z,101331.63
2017-10-25T07:56:10.444Z,101320.78
2017-10-25T07:58:42.162Z,101314.69
2017-10-25T08:01:13.541Z,101313.27
2017-10-25T08:03:45.002Z,101317.48
2017-10-25T08:06:17.196Z,101312.09
2017-10-25T08:08:48.671Z,101320.39
2017-10-25T08:11:21.283Z,101336.02
2017-10-25T08:13:53.076Z,101342.22
2017-10-25T08:16:24.615Z,101342.11
2017-10-25T08:18:57.367Z,101357.00
2017-10-25T08:21:29.364Z,101349.03
2017-10-25T08:24:03.973Z,101354.73
2017-10-25T08:26:35.616Z,101358.97
2017-10-25T08:29:07.134Z,101362.37
2017-10-25T08:31:38.999Z,101366.83
2017-10-25T08:34:10.374Z,101361.99
2017-10-25T08:36:42.199Z,101350.62
2017-10-25T08:39:13.724Z,101351.24
2017-10-25T08:41:45.294Z,101346.98
2017-10-25T08:44:16.750Z,101352.47
2017-10-25T08:46:48.147Z,101356.91
2017-10-25T08:49:19.502Z,101356.77
2017-10-25T08:51:51.201Z,101363.84
2017-10-25T08:54:24.006Z,101359.90
2017-10-25T08:56:55.806Z,101363.02
2017-10-25T08:59:27.336Z,101366.80
2017-10-25T09:01:58.880Z,101354.23
2017-10-25T09:04:30.796Z,101366.75
2017-10-25T09:07:02.896Z,101370.23
2017-10-25T09:09:34.993Z,101365.61
2017-10-25T09:12:08.289Z,101366.26
2017-10-25T09:14:39.833Z,101364.06
2017-10-25T09:17:11.510Z,101374.00
2017-10-25T09:19:42.926Z,101372.27
2017-10-25T09:22:14.338Z,101370.22
2017-10-25T09:24:46.146Z,101359.95
2017-10-25T09:27:17.564Z,101368.77
2017-10-25T09:29:49.111Z,101367.39
2017-10-25T09:32:23.577Z,101373.74
2017-10-25T09:37:55.002Z,101366.47
2017-10-25T09:40:26.481Z,101371.00
2017-10-25T09:42:58.244Z,101363.09
2017-10-25T09:45:29.698Z,101366.09
2017-10-25T09:48:01.143Z,101363.70
2017-10-25T09:50:33.187Z,101356.79
2017-10-25T09:53:05.200Z,101360.07
2017-10-25T09:55:37.473Z,101352.56
2017-10-25T09:58:09.488Z,101344.26
2017-10-25T10:00:41.167Z,101355.70
2017-10-25T10:03:12.547Z,101363.27
2017-10-25T10:05:44.064Z,101363.17
2017-10-25T10:08:16.734Z,101368.06
2017-10-25T10:10:48.151Z,101365.41
2017-10-25T10:13:20.657Z,101367.67
2017-10-25T10:15:52.124Z,101363.69
2017-10-25T10:19:26.015Z,101367.22
2017-10-25T10:21:57.523Z,101359.17
2017-10-25T10:24:29.350Z,101356.75
2017-10-25T10:27:01.235Z,101362.25
2017-10-25T10:29:32.691Z,101356.53
2017-10-25T10:32:04.855Z,101366.77
2017-10-25T10:34:36.580Z,101360.77
2017-10-25T10:37:08.191Z,101360.30
2017-10-25T10:39:39.875Z,101357.43
2017-10-25T10:42:11.311Z,101356.09
2017-10-25T10:44:42.961Z,101346.64
2017-10-25T10:47:15.150Z,101337.28
2017-10-25T10:49:47.265Z,101343.30
2017-10-25T10:52:20.258Z,101346.22
2017-10-25T10:54:51.651Z,101348.59
2017-10-25T10:57:23.058Z,101343.13
2017-10-25T10:59:54.737Z,101330.70
2017-10-25T11:02:26.186Z,101327.38
2017-10-25T11:04:57.585Z,101337.05
2017-10-25T11:07:29.276Z,101335.77
2017-10-25T11:10:01.068Z,101335.31
2017-10-25T11:12:33.419Z,101343.27
2017-10-25T11:15:05.458Z,101349.83
2017-10-25T11:17:36.864Z,101358.30
2017-10-25T11:20:39.228Z,101351.34
2017-10-25T11:23:10.715Z,101339.59
2017-10-25T11:25:42.998Z,101321.78
2017-10-25T11:28:14.990Z,101316.11
2017-10-25T11:30:46.597Z,101320.48
2017-10-25T11:33:18.567Z,101319.17
2017-10-25T11:35:50.096Z,101320.73
2017-10-25T11:38:22.880Z,101317.59
2017-10-25T11:40:54.568Z,101313.89
2017-10-25T11:43:26.103Z,101305.94
2017-10-25T11:45:57.594Z,101305.77
2017-10-25T11:48:29.975Z,101307.75
2017-10-25T11:51:01.946Z,101302.19
2017-10-25T11:53:33.341Z,101296.78
2017-10-25T11:56:06.672Z,101295.92
2017-10-25T11:58:38.066Z,101296.89
2017-10-25T12:01:10.391Z,101294.36
2017-10-25T12:03:43.006Z,101296.52
2017-10-25T12:06:14.457Z,101300.92
2017-10-25T12:08:45.867Z,101304.63
2017-10-25T12:11:18.409Z,101294.02
2017-10-25T12:13:49.967Z,101284.84
2017-10-25T12:16:21.590Z,101279.54
2017-10-25T12:18:53.004Z,101269.58
2017-10-25T12:21:24.374Z,101272.02
2017-10-25T12:23:56.866Z,101279.09
2017-10-25T12:26:29.888Z,101277.14
2017-10-25T12:29:01.887Z,101274.09
2017-10-25T12:31:37.323Z,101268.20
2017-10-25T12:34:10.454Z,101274.05
2017-10-25T12:36:46.717Z,101268.08
2017-10-25T12:39:20.007Z,101259.74
2017-10-25T12:41:52.477Z,101250.01
2017-10-25T12:44:25.680Z,101245.87
2017-10-25T12:46:57.156Z,101247.52
2017-10-25T12:49:44.243Z,101241.66
2017-10-25T12:52:17.044Z,101249.32
2017-10-25T12:54:50.859Z,101252.05
2017-10-25T12:57:30.514Z,101259.16
2017-10-25T13:00:03.477Z,101264.13
2017-10-25T13:02:35.361Z,101257.41
2017-10-25T13:05:07.497Z,101261.23
2017-10-25T13:07:39.617Z,101233.50
2017-10-25T13:11:19.307Z,101215.77
2017-10-25T13:14:08.624Z,101203.97
2017-10-25T13:17:02.901Z,101194.91
2017-10-25T13:22:21.856Z,101186.78
2017-10-25T13:24:56.415Z,101181.60
2017-10-25T13:27:27.899Z,101172.64
2017-10-25T13:29:59.806Z,101174.03
2017-10-25T13:32:33.439Z,101180.53
2017-10-25T13:35:05.591Z,101191.48
2017-10-25T13:37:38.018Z,101192.27
2017-10-25T13:40:09.498Z,101189.59
2017-10-25T13:42:40.892Z,101196.15
2017-10-25T13:45:17.244Z,101195.72
2017-10-25T13:47:49.925Z,101191.00
2017-10-25T13:50:21.369Z,101188.50
2017-10-25T13:52:55.266Z,101198.36
2017-10-25T13:55:30.400Z,101207.44
2017-10-25T13:58:03.225Z,101210.05
2017-10-25T14:00:34.797Z,101216.61
2017-10-25T14:03:08.220Z,101218.23
2017-10-25T14:05:39.995Z,101224.17
2017-10-25T14:08:12.135Z,101221.03
2017-10-25T14:10:43.497Z,101215.43
2017-10-25T14:13:15.308Z,101217.27
2017-10-25T14:15:47.110Z,101217.92
2017-10-25T14:18:19.490Z,101222.33
2017-10-25T14:20:50.972Z,101231.94
2017-10-25T14:23:22.634Z,101229.89
2017-10-25T14:25:54.128Z,101237.68
2017-10-25T14:28:56.422Z,101229.66
2017-10-25T14:31:28.300Z,101232.58
2017-10-25T14:34:00.235Z,101234.29
2017-10-25T14:36:32.328Z,101226.59
2017-10-25T14:39:04.062Z,101220.55
2017-10-25T14:41:37.248Z,101223.08
2017-10-25T14:44:10.294Z,101240.83
2017-10-25T14:46:41.770Z,101244.64
2017-10-25T14:49:13.542Z,101260.77
2017-10-25T14:51:45.672Z,101263.67
2017-10-25T14:54:18.208Z,101268.67
2017-10-25T14:56:49.999Z,101277.00
2017-10-25T14:59:25.362Z,101276.72
2017-10-25T15:01:57.297Z,101277.42
2017-10-25T15:04:29.092Z,101277.30
2017-10-25T15:07:02.404Z,101279.23
2017-10-25T15:09:34.850Z,101282.14
2017-10-25T15:12:06.730Z,101291.64
2017-10-25T15:14:38.278Z,101294.68
2017-10-25T15:17:12.060Z,101298.67
2017-10-25T15:19:44.032Z,101299.75
2017-10-25T15:22:18.129Z,101303.91
2017-10-25T15:24:49.694Z,101307.03
2017-10-25T15:27:27.197Z,101314.23
2017-10-25T15:29:58.836Z,101311.59
2017-10-25T15:32:34.183Z,101322.48
2017-10-25T15:35:05.766Z,101321.01
2017-10-25T15:37:38.919Z,101321.00
2017-10-25T15:40:12.641Z,101329.55
2017-10-25T15:42:44.630Z,101334.59
2017-10-25T15:45:16.061Z,101332.50
2017-10-25T15:47:47.514Z,101329.66
2017-10-25T15:50:21.826Z,101334.98
2017-10-25T15:52:53.814Z,101337.14
2017-10-25T15:55:34.171Z,101342.30
2017-10-25T15:58:12.323Z,101335.41
2017-10-25T16:00:43.767Z,101343.69
2017-10-25T16:03:16.649Z,101343.56
2017-10-25T16:05:48.661Z,101337.33
2017-10-25T16:08:21.164Z,101338.95
2017-10-25T16:10:53.303Z,101330.81
2017-10-25T16:13:26.896Z,101334.05
2017-10-25T16:15:58.808Z,101328.41
2017-10-25T16:18:31.353Z,101331.98
2017-10-25T16:21:05.708Z,101341.69
2017-10-25T16:23:37.900Z,101337.63
2017-10-25T16:26:09.670Z,101333.38
2017-10-25T16:28:42.605Z,101332.11
2017-10-25T16:31:14.051Z,101343.56
2017-10-25T16:33:45.596Z,101351.97
2017-10-25T16:36:18.532Z,101349.82
2017-10-25T16:38:50.011Z,101347.25
2017-10-25T16:41:23.597Z,101347.06
2017-10-25T16:43:56.416Z,101343.95
2017-10-25T16:46:29.004Z,101343.95
2017-10-25T16:49:00.496Z,101350.27
2017-10-25T16:51:32.648Z,101352.88
2017-10-25T16:54:10.745Z,101359.89
2017-10-25T16:56:42.272Z,101363.00
2017-10-25T16:59:22.426Z,101357.41
2017-10-25T17:01:55.774Z,101363.95
2017-10-25T17:04:30.968Z,101373.48
2017-10-25T17:07:08.440Z,101372.94
2017-10-25T17:09:40.093Z,101377.72
2017-10-25T17:12:12.336Z,101375.30
2017-10-25T17:14:46.318Z,101382.67
2017-10-25T17:17:18.937Z,101383.88
2017-10-25T17:19:50.353Z,101383.11
2017-10-25T17:22:23.924Z,101381.03
2017-10-25T17:24:55.384Z,101390.47
2017-10-25T17:27:27.538Z,101385.77
2017-10-25T17:29:59.299Z,101389.48
2017-10-25T17:32:31.736Z,101390.68
2017-10-25T17:35:04.869Z,101394.92
2017-10-25T17:37:36.610Z,101400.09
2017-10-25T17:40:10.857Z,101397.67
2017-10-25T17:42:42.278Z,101402.17
2017-10-25T17:45:13.977Z,101404.62
2017-10-25T17:47:45.313Z,101406.61
2017-10-25T17:50:16.853Z,101402.20
2017-10-25T17:52:48.375Z,101405.28
2017-10-25T17:55:22.112Z,101399.20
2017-10-25T17:57:53.619Z,101401.14
2017-10-25T18:00:26.836Z,101404.09
2017-10-25T18:02:59.339Z,101401.63
2017-10-25T18:05:30.955Z,101407.98
2017-10-25T18:08:04.026Z,101403.75
2017-10-25T18:10:37.403Z,101395.63
2017-10-25T18:13:10.207Z,101396.59
2017-10-25T18:15:42.126Z,101398.13
2017-10-25T18:18:15.979Z,101398.23
2017-10-25T18:20:50.404Z,101401.53
2017-10-25T18:23:23.609Z,101408.01
2017-10-25T18:25:55.363Z,101412.08
2017-10-25T18:28:27.418Z,101416.05
2017-10-25T18:30:59.144Z,101423.25
2017-10-25T18:33:31.086Z,101431.32
2017-10-25T18:36:04.255Z,101430.98
2017-10-25T18:38:36.453Z,101428.22
2017-10-25T18:41:08.194Z,101428.25
2017-10-25T18:43:39.627Z,101419.77
2017-10-25T18:46:21.663Z,101429.58
2017-10-25T18:48:56.526Z,101428.36
2017-10-25T18:51:34.964Z,101423.80
2017-10-25T18:54:06.525Z,101432.30
2017-10-25T18:56:40.017Z,101434.69
2017-10-25T18:59:12.753Z,101430.33
2017-10-25T19:01:45.927Z,101426.20
2017-10-25T19:04:18.624Z,101433.73
2017-10-25T19:06:50.600Z,101437.34
2017-10-25T19:09:22.746Z,101449.39
2017-10-25T19:11:54.160Z,101446.87
2017-10-25T19:14:26.381Z,101446.74
2017-10-25T19:16:58.523Z,101452.37
2017-10-25T19:19:32.306Z,101457.34
2017-10-25T19:22:05.326Z,101460.20
2017-10-25T19:24:37.575Z,101460.78
2017-10-25T19:27:10.271Z,101459.08
2017-10-25T19:29:43.086Z,101456.81
2017-10-25T19:32:14.607Z,101459.08
2017-10-25T19:34:46.110Z,101457.94
2017-10-25T19:37:18.832Z,101455.95
2017-10-25T19:42:21.849Z,101464.96
2017-10-25T19:44:54.545Z,101469.45
2017-10-25T19:47:28.848Z,101474.54
2017-10-25T19:50:02.648Z,101475.20
2017-10-25T19:52:34.127Z,101476.17
2017-10-25T19:55:05.533Z,101474.19
2017-10-25T19:57:36.971Z,101486.09
2017-10-25T20:00:08.632Z,101476.58
2017-10-25T20:02:39.975Z,101477.67
2017-10-25T20:05:12.109Z,101472.98
2017-10-25T20:07:43.921Z,101479.77
2017-10-25T20:10:15.265Z,101480.25
2017-10-25T20:12:46.576Z,101475.95
2017-10-25T20:15:18.207Z,101480.41
2017-10-25T20:17:49.563Z,101481.41
2017-10-25T20:20:21.760Z,101480.11
2017-10-25T20:22:53.759Z,101480.63
2017-10-25T20:25:26.203Z,101484.36
2017-10-25T20:27:58.552Z,101481.85
2017-10-25T20:30:32.086Z,101482.51
2017-10-25T20:33:09.476Z,101487.80
2017-10-25T20:35:41.212Z,101492.64
2017-10-25T20:38:12.533Z,101494.86
2017-10-25T20:40:43.862Z,101493.11
2017-10-25T20:43:16.537Z,101492.38
2017-10-25T20:45:48.537Z,101492.41
2017-10-25T20:48:21.176Z,101492.50
2017-10-25T20:50:53.063Z,101489.16
2017-10-25T20:53:27.887Z,101497.56
2017-10-25T20:56:04.411Z,101503.45
2017-10-25T20:58:37.021Z,101515.84
2017-10-25T21:01:08.532Z,101511.16
2017-10-25T21:03:40.475Z,101520.52
2017-10-25T21:06:11.976Z,101517.44
2017-10-25T21:08:44.503Z,101512.70
2017-10-25T21:11:16.064Z,101515.02
2017-10-25T21:13:48.523Z,101523.02
2017-10-25T21:16:20.295Z,101524.45
2017-10-25T21:18:52.759Z,101516.64
2017-10-25T21:21:25.506Z,101522.91
2017-10-25T21:23:57.620Z,101524.87
2017-10-25T21:26:31.263Z,101523.61
2017-10-25T21:29:03.758Z,101519.59
2017-10-25T21:31:36.221Z,101524.09
2017-10-25T21:34:08.038Z,101523.91
2017-10-25T21:36:39.414Z,101536.45
2017-10-25T21:39:11.084Z,101534.00
2017-10-25T21:41:42.481Z,101536.67
2017-10-25T21:44:13.896Z,101531.92
2017-10-25T21:46:45.649Z,101535.94
2017-10-25T21:49:18.034Z,101542.59
2017-10-25T21:51:49.719Z,101546.20
2017-10-25T21:54:22.567Z,101551.55
2017-10-25T21:56:54.025Z,101560.48
2017-10-25T21:59:26.304Z,101564.52
2017-10-25T22:01:57.714Z,101557.12
2017-10-25T22:04:30.856Z,101553.61
2017-10-25T22:07:02.457Z,101550.55
2017-10-25T22:09:34.038Z,101545.39
2017-10-25T22:12:06.924Z,101540.55
2017-10-25T22:14:38.642Z,101541.92
2017-10-25T22:17:11.573Z,101531.28
2017-10-25T22:19:43.055Z,101531.28
2017-10-25T22:22:14.383Z,101532.20
2017-10-25T22:24:45.989Z,101534.05
2017-10-25T22:27:17.873Z,101535.41
2017-10-25T22:29:49.221Z,101544.73
2017-10-25T22:32:20.869Z,101544.50
2017-10-25T22:34:52.282Z,101545.11
2017-10-25T22:37:24.828Z,101549.15
2017-10-25T22:39:56.201Z,101545.73
2017-10-25T22:42:28.844Z,101547.45
2017-10-25T22:45:00.518Z,101546.36
2017-10-25T22:47:31.825Z,101546.05
2017-10-25T22:50:04.569Z,101549.14
2017-10-25T22:55:41.761Z,101540.50
2017-10-25T22:58:16.132Z,101546.16
2017-10-25T23:00:48.127Z,101546.31
2017-10-25T23:03:20.373Z,101550.84
2017-10-25T23:05:51.950Z,101549.22
2017-10-25T23:08:24.086Z,101537.91
2017-10-25T23:10:56.343Z,101537.50
2017-10-25T23:13:27.965Z,101540.11
2017-10-25T23:15:59.683Z,101535.78
2017-10-25T23:18:34.963Z,101533.67
2017-10-25T23:21:07.093Z,101532.37
2017-10-25T23:23:40.430Z,101537.20
2017-10-25T23:26:13.204Z,101544.17
2017-10-25T23:28:44.955Z,101532.37
2017-10-25T23:31:18.803Z,101531.87
2017-10-25T23:33:50.850Z,101536.41
2017-10-25T23:36:22.522Z,101544.27
2017-10-25T23:38:53.878Z,101534.17
2017-10-25T23:41:25.529Z,101534.30
2017-10-25T23:43:57.251Z,101530.03
2017-10-25T23:46:29.179Z,101534.41
2017-10-25T23:49:03.297Z,101530.47
2017-10-25T23:51:37.221Z,101533.11
2017-10-25T23:54:15.004Z,101536.20
2017-10-25T23:56:46.630Z,101530.56
2017-10-25T23:59:19.373Z,101533.30
